sensor_id;sensor_type;location;lat;lon;timestamp;temperature;humidity
24158;DHT22;12316;50.904;4.200;2024-01-16T00:01:28;3.00;99.90
24158;DHT22;12316;50.904;4.200;2024-01-16T00:03:53;2.90;99.90
24158;DHT22;12316;50.904;4.200;2024-01-16T00:06:19;3.00;99.90
24158;DHT22;12316;50.904;4.200;2024-01-16T00:08:45;2.90;99.90
24158;DHT22;12316;50.904;4.200;2024-01-16T00:11:10;2.80;99.90
24158;DHT22;12316;50.904;4.200;2024-01-16T00:13:36;2.90;99.90
24158;DHT22;12316;50.904;4.200;2024-01-16T00:16:02;2.70;99.90
24158;DHT22;12316;50.904;4.200;2024-01-16T00:18:29;2.60;99.90
24158;DHT22;12316;50.904;4.200;2024-01-16T00:20:55;2.50;99.90
24158;DHT22;12316;50.904;4.200;2024-01-16T00:23:20;2.30;99.90
24158;DHT22;12316;50.904;4.200;2024-01-16T00:25:46;2.30;99.90
24158;DHT22;12316;50.904;4.200;2024-01-16T00:28:12;2.40;99.90
24158;DHT22;12316;50.904;4.200;2024-01-16T00:30:37;2.40;99.90
24158;DHT22;12316;50.904;4.200;2024-01-16T00:33:03;2.30;99.90
24158;DHT22;12316;50.904;4.200;2024-01-16T00:35:29;2.10;99.90
24158;DHT22;12316;50.904;4.200;2024-01-16T00:37:55;1.80;99.90
24158;DHT22;12316;50.904;4.200;2024-01-16T00:40:20;1.70;99.90
24158;DHT22;12316;50.904;4.200;2024-01-16T00:42:46;1.70;99.90
24158;DHT22;12316;50.904;4.200;2024-01-16T00:45:11;1.90;99.90
24158;DHT22;12316;50.904;4.200;2024-01-16T00:47:37;1.80;99.90
24158;DHT22;12316;50.904;4.200;2024-01-16T00:50:03;1.80;99.90
24158;DHT22;12316;50.904;4.200;2024-01-16T00:52:29;1.60;99.90
24158;DHT22;12316;50.904;4.200;2024-01-16T00:54:54;1.60;99.90
24158;DHT22;12316;50.904;4.200;2024-01-16T00:57:20;1.60;99.90
24158;DHT22;12316;50.904;4.200;2024-01-16T00:59:46;1.60;99.90
24158;DHT22;12316;50.904;4.200;2024-01-16T01:02:12;1.70;99.90
24158;DHT22;12316;50.904;4.200;2024-01-16T01:04:38;1.70;99.90
24158;DHT22;12316;50.904;4.200;2024-01-16T01:07:04;1.70;99.90
24158;DHT22;12316;50.904;4.200;2024-01-16T01:09:31;1.50;99.90
24158;DHT22;12316;50.904;4.200;2024-01-16T01:11:57;1.40;99.90
24158;DHT22;12316;50.904;4.200;2024-01-16T01:14:23;1.40;99.90
24158;DHT22;12316;50.904;4.200;2024-01-16T01:16:48;1.60;99.90
24158;DHT22;12316;50.904;4.200;2024-01-16T01:19:14;1.40;99.90
24158;DHT22;12316;50.904;4.200;2024-01-16T01:21:40;1.30;99.90
24158;DHT22;12316;50.904;4.200;2024-01-16T01:24:05;1.20;99.90
24158;DHT22;12316;50.904;4.200;2024-01-16T01:26:31;1.40;99.90
24158;DHT22;12316;50.904;4.200;2024-01-16T01:28:56;1.30;99.90
24158;DHT22;12316;50.904;4.200;2024-01-16T01:31:22;1.40;99.90
24158;DHT22;12316;50.904;4.200;2024-01-16T01:33:48;1.30;99.90
24158;DHT22;12316;50.904;4.200;2024-01-16T01:36:14;1.20;99.90
24158;DHT22;12316;50.904;4.200;2024-01-16T01:38:39;1.20;99.90
24158;DHT22;12316;50.904;4.200;2024-01-16T01:41:05;1.20;99.90
24158;DHT22;12316;50.904;4.200;2024-01-16T01:43:31;1.40;99.90
24158;DHT22;12316;50.904;4.200;2024-01-16T01:46:23;1.30;99.90
24158;DHT22;12316;50.904;4.200;2024-01-16T01:48:48;1.10;99.90
24158;DHT22;12316;50.904;4.200;2024-01-16T01:51:17;1.10;99.90
24158;DHT22;12316;50.904;4.200;2024-01-16T01:53:44;1.10;99.90
24158;DHT22;12316;50.904;4.200;2024-01-16T01:56:17;1.20;99.90
24158;DHT22;12316;50.904;4.200;2024-01-16T01:58:47;1.30;99.90
24158;DHT22;12316;50.904;4.200;2024-01-16T02:01:15;1.30;99.90
24158;DHT22;12316;50.904;4.200;2024-01-16T02:03:43;1.30;99.90
24158;DHT22;12316;50.904;4.200;2024-01-16T02:06:10;1.40;99.90
24158;DHT22;12316;50.904;4.200;2024-01-16T02:08:37;1.30;99.90
24158;DHT22;12316;50.904;4.200;2024-01-16T02:11:03;1.40;99.90
24158;DHT22;12316;50.904;4.200;2024-01-16T02:13:29;1.50;99.90
24158;DHT22;12316;50.904;4.200;2024-01-16T02:15:55;1.40;99.90
24158;DHT22;12316;50.904;4.200;2024-01-16T02:18:20;1.30;99.90
24158;DHT22;12316;50.904;4.200;2024-01-16T02:20:47;1.40;99.90
24158;DHT22;12316;50.904;4.200;2024-01-16T02:23:14;1.30;99.90
24158;DHT22;12316;50.904;4.200;2024-01-16T02:25:43;1.30;99.90
24158;DHT22;12316;50.904;4.200;2024-01-16T02:28:10;1.50;99.90
24158;DHT22;12316;50.904;4.200;2024-01-16T02:30:35;1.50;99.90
24158;DHT22;12316;50.904;4.200;2024-01-16T02:33:01;1.40;99.90
24158;DHT22;12316;50.904;4.200;2024-01-16T02:35:26;1.40;99.90
24158;DHT22;12316;50.904;4.200;2024-01-16T02:37:52;1.30;99.90
24158;DHT22;12316;50.904;4.200;2024-01-16T02:40:18;1.30;99.90
24158;DHT22;12316;50.904;4.200;2024-01-16T02:42:43;1.30;99.90
24158;DHT22;12316;50.904;4.200;2024-01-16T02:45:09;1.30;99.90
24158;DHT22;12316;50.904;4.200;2024-01-16T02:47:35;1.30;99.90
24158;DHT22;12316;50.904;4.200;2024-01-16T02:50:01;1.20;99.90
24158;DHT22;12316;50.904;4.200;2024-01-16T02:52:27;1.10;99.90
24158;DHT22;12316;50.904;4.200;2024-01-16T02:54:53;1.10;99.90
24158;DHT22;12316;50.904;4.200;2024-01-16T02:57:19;1.20;99.90
24158;DHT22;12316;50.904;4.200;2024-01-16T02:59:45;1.20;99.90
24158;DHT22;12316;50.904;4.200;2024-01-16T03:02:12;1.10;99.90
24158;DHT22;12316;50.904;4.200;2024-01-16T03:04:38;1.20;99.90
24158;DHT22;12316;50.904;4.200;2024-01-16T03:07:04;1.30;99.90
24158;DHT22;12316;50.904;4.200;2024-01-16T03:09:30;1.20;99.90
24158;DHT22;12316;50.904;4.200;2024-01-16T03:11:56;1.30;99.90
24158;DHT22;12316;50.904;4.200;2024-01-16T03:14:23;1.30;99.90
24158;DHT22;12316;50.904;4.200;2024-01-16T03:16:48;1.30;99.90
24158;DHT22;12316;50.904;4.200;2024-01-16T03:19:14;1.40;99.90
24158;DHT22;12316;50.904;4.200;2024-01-16T03:21:40;1.40;99.90
24158;DHT22;12316;50.904;4.200;2024-01-16T03:24:06;1.30;99.90
24158;DHT22;12316;50.904;4.200;2024-01-16T03:26:32;1.40;99.90
24158;DHT22;12316;50.904;4.200;2024-01-16T03:28:58;1.40;99.90
24158;DHT22;12316;50.904;4.200;2024-01-16T03:31:24;1.30;99.90
24158;DHT22;12316;50.904;4.200;2024-01-16T03:33:50;1.40;99.90
24158;DHT22;12316;50.904;4.200;2024-01-16T03:36:15;1.30;99.90
24158;DHT22;12316;50.904;4.200;2024-01-16T03:38:44;1.30;99.90
24158;DHT22;12316;50.904;4.200;2024-01-16T03:41:13;1.40;99.90
24158;DHT22;12316;50.904;4.200;2024-01-16T03:43:39;1.40;99.90
24158;DHT22;12316;50.904;4.200;2024-01-16T03:46:05;1.30;99.90
24158;DHT22;12316;50.904;4.200;2024-01-16T03:48:32;1.20;99.90
24158;DHT22;12316;50.904;4.200;2024-01-16T03:50:57;1.20;99.90
24158;DHT22;12316;50.904;4.200;2024-01-16T03:53:23;1.40;99.90
24158;DHT22;12316;50.904;4.200;2024-01-16T03:55:49;1.30;99.90
24158;DHT22;12316;50.904;4.200;2024-01-16T03:58:16;1.30;99.90
24158;DHT22;12316;50.904;4.200;2024-01-16T04:00:42;1.30;99.90
24158;DHT22;12316;50.904;4.200;2024-01-16T04:03:08;1.30;99.90
24158;DHT22;12316;50.904;4.200;2024-01-16T04:05:34;1.50;99.90
24158;DHT22;12316;50.904;4.200;2024-01-16T04:08:00;1.40;99.90
24158;DHT22;12316;50.904;4.200;2024-01-16T04:10:26;1.30;99.90
24158;DHT22;12316;50.904;4.200;2024-01-16T04:12:51;1.30;99.90
24158;DHT22;12316;50.904;4.200;2024-01-16T04:15:17;1.20;99.90
24158;DHT22;12316;50.904;4.200;2024-01-16T04:17:43;1.20;99.90
24158;DHT22;12316;50.904;4.200;2024-01-16T04:20:09;1.20;99.90
24158;DHT22;12316;50.904;4.200;2024-01-16T04:22:35;1.10;99.90
24158;DHT22;12316;50.904;4.200;2024-01-16T04:25:01;1.10;99.90
24158;DHT22;12316;50.904;4.200;2024-01-16T04:27:30;1.00;99.90
24158;DHT22;12316;50.904;4.200;2024-01-16T04:29:56;1.10;99.90
24158;DHT22;12316;50.904;4.200;2024-01-16T04:32:21;1.10;99.90
24158;DHT22;12316;50.904;4.200;2024-01-16T04:34:47;1.00;99.90
24158;DHT22;12316;50.904;4.200;2024-01-16T04:37:13;1.00;99.90
24158;DHT22;12316;50.904;4.200;2024-01-16T04:39:38;0.90;99.90
24158;DHT22;12316;50.904;4.200;2024-01-16T04:42:04;0.90;99.90
24158;DHT22;12316;50.904;4.200;2024-01-16T04:44:29;1.00;99.90
24158;DHT22;12316;50.904;4.200;2024-01-16T04:46:55;0.90;99.90
24158;DHT22;12316;50.904;4.200;2024-01-16T04:49:21;0.90;99.90
24158;DHT22;12316;50.904;4.200;2024-01-16T04:51:46;0.80;99.90
24158;DHT22;12316;50.904;4.200;2024-01-16T04:54:12;1.00;99.90
24158;DHT22;12316;50.904;4.200;2024-01-16T04:56:38;1.10;99.90
24158;DHT22;12316;50.904;4.200;2024-01-16T04:59:04;1.30;99.90
24158;DHT22;12316;50.904;4.200;2024-01-16T05:01:29;1.20;99.90
24158;DHT22;12316;50.904;4.200;2024-01-16T05:03:55;1.10;99.90
24158;DHT22;12316;50.904;4.200;2024-01-16T05:06:21;1.00;99.90
24158;DHT22;12316;50.904;4.200;2024-01-16T05:08:47;0.90;99.90
24158;DHT22;12316;50.904;4.200;2024-01-16T05:11:13;1.00;99.90
24158;DHT22;12316;50.904;4.200;2024-01-16T05:13:38;0.90;99.90
24158;DHT22;12316;50.904;4.200;2024-01-16T05:16:05;0.90;99.90
24158;DHT22;12316;50.904;4.200;2024-01-16T05:18:31;0.80;99.90
24158;DHT22;12316;50.904;4.200;2024-01-16T05:20:58;0.90;99.90
24158;DHT22;12316;50.904;4.200;2024-01-16T05:23:24;0.70;99.90
24158;DHT22;12316;50.904;4.200;2024-01-16T05:25:49;0.60;99.90
24158;DHT22;12316;50.904;4.200;2024-01-16T05:28:15;0.60;99.90
24158;DHT22;12316;50.904;4.200;2024-01-16T05:30:41;0.70;99.90
24158;DHT22;12316;50.904;4.200;2024-01-16T05:33:06;0.60;99.90
24158;DHT22;12316;50.904;4.200;2024-01-16T05:35:32;0.60;99.90
24158;DHT22;12316;50.904;4.200;2024-01-16T05:37:58;0.50;99.90
24158;DHT22;12316;50.904;4.200;2024-01-16T05:40:25;0.50;99.90
24158;DHT22;12316;50.904;4.200;2024-01-16T05:42:50;0.30;99.90
24158;DHT22;12316;50.904;4.200;2024-01-16T05:45:17;0.20;99.90
24158;DHT22;12316;50.904;4.200;2024-01-16T05:47:42;0.30;99.90
24158;DHT22;12316;50.904;4.200;2024-01-16T05:50:08;0.30;99.90
24158;DHT22;12316;50.904;4.200;2024-01-16T05:52:34;0.30;99.90
24158;DHT22;12316;50.904;4.200;2024-01-16T05:55:00;0.30;99.90
24158;DHT22;12316;50.904;4.200;2024-01-16T05:57:28;0.40;99.90
24158;DHT22;12316;50.904;4.200;2024-01-16T05:59:54;0.30;99.90
24158;DHT22;12316;50.904;4.200;2024-01-16T06:02:20;0.40;99.90
24158;DHT22;12316;50.904;4.200;2024-01-16T06:04:46;0.30;99.90
24158;DHT22;12316;50.904;4.200;2024-01-16T06:07:11;0.30;99.90
24158;DHT22;12316;50.904;4.200;2024-01-16T06:09:40;0.20;99.90
24158;DHT22;12316;50.904;4.200;2024-01-16T06:12:06;0.40;99.90
24158;DHT22;12316;50.904;4.200;2024-01-16T06:14:32;0.40;99.90
24158;DHT22;12316;50.904;4.200;2024-01-16T06:16:58;0.50;99.90
24158;DHT22;12316;50.904;4.200;2024-01-16T06:19:24;0.40;99.90
24158;DHT22;12316;50.904;4.200;2024-01-16T06:21:50;0.50;99.90
24158;DHT22;12316;50.904;4.200;2024-01-16T06:24:15;0.60;99.90
24158;DHT22;12316;50.904;4.200;2024-01-16T06:26:41;0.60;99.90
24158;DHT22;12316;50.904;4.200;2024-01-16T06:29:07;0.70;99.90
24158;DHT22;12316;50.904;4.200;2024-01-16T06:31:33;0.70;99.90
24158;DHT22;12316;50.904;4.200;2024-01-16T06:33:59;0.70;99.90
24158;DHT22;12316;50.904;4.200;2024-01-16T06:36:24;0.60;99.90
24158;DHT22;12316;50.904;4.200;2024-01-16T06:38:50;0.60;99.90
24158;DHT22;12316;50.904;4.200;2024-01-16T06:41:16;0.50;99.90
24158;DHT22;12316;50.904;4.200;2024-01-16T06:43:41;0.50;99.90
24158;DHT22;12316;50.904;4.200;2024-01-16T06:46:07;0.60;99.90
24158;DHT22;12316;50.904;4.200;2024-01-16T06:48:35;0.60;99.90
24158;DHT22;12316;50.904;4.200;2024-01-16T06:51:01;0.60;99.90
24158;DHT22;12316;50.904;4.200;2024-01-16T06:53:26;0.50;99.90
24158;DHT22;12316;50.904;4.200;2024-01-16T06:55:52;0.40;99.90
24158;DHT22;12316;50.904;4.200;2024-01-16T06:58:18;0.40;99.90
24158;DHT22;12316;50.904;4.200;2024-01-16T07:00:43;0.50;99.90
24158;DHT22;12316;50.904;4.200;2024-01-16T07:03:10;0.30;99.90
24158;DHT22;12316;50.904;4.200;2024-01-16T07:05:35;0.30;99.90
24158;DHT22;12316;50.904;4.200;2024-01-16T07:08:01;0.30;99.90
24158;DHT22;12316;50.904;4.200;2024-01-16T07:10:27;0.30;99.90
24158;DHT22;12316;50.904;4.200;2024-01-16T07:12:53;0.40;99.90
24158;DHT22;12316;50.904;4.200;2024-01-16T07:15:18;0.20;99.90
24158;DHT22;12316;50.904;4.200;2024-01-16T07:17:44;0.20;99.90
24158;DHT22;12316;50.904;4.200;2024-01-16T07:20:10;0.30;99.90
24158;DHT22;12316;50.904;4.200;2024-01-16T07:22:37;0.40;99.90
24158;DHT22;12316;50.904;4.200;2024-01-16T07:25:05;0.50;99.90
24158;DHT22;12316;50.904;4.200;2024-01-16T07:27:31;0.50;99.90
24158;DHT22;12316;50.904;4.200;2024-01-16T07:29:56;0.50;99.90
24158;DHT22;12316;50.904;4.200;2024-01-16T07:32:22;0.60;99.90
24158;DHT22;12316;50.904;4.200;2024-01-16T07:34:48;0.70;99.90
24158;DHT22;12316;50.904;4.200;2024-01-16T07:37:13;0.60;99.90
24158;DHT22;12316;50.904;4.200;2024-01-16T07:39:41;0.60;99.90
24158;DHT22;12316;50.904;4.200;2024-01-16T07:42:07;0.70;99.90
24158;DHT22;12316;50.904;4.200;2024-01-16T07:44:33;0.70;99.90
24158;DHT22;12316;50.904;4.200;2024-01-16T07:46:59;0.60;99.90
24158;DHT22;12316;50.904;4.200;2024-01-16T07:49:24;0.50;99.90
24158;DHT22;12316;50.904;4.200;2024-01-16T07:51:50;0.60;99.90
24158;DHT22;12316;50.904;4.200;2024-01-16T07:54:15;0.50;99.90
24158;DHT22;12316;50.904;4.200;2024-01-16T07:56:41;0.40;99.90
24158;DHT22;12316;50.904;4.200;2024-01-16T07:59:07;0.40;99.90
24158;DHT22;12316;50.904;4.200;2024-01-16T08:01:32;0.70;99.90
24158;DHT22;12316;50.904;4.200;2024-01-16T08:03:58;0.80;99.90
24158;DHT22;12316;50.904;4.200;2024-01-16T08:06:24;0.90;99.90
24158;DHT22;12316;50.904;4.200;2024-01-16T08:08:50;0.70;99.90
24158;DHT22;12316;50.904;4.200;2024-01-16T08:11:17;0.70;99.90
24158;DHT22;12316;50.904;4.200;2024-01-16T08:13:43;0.90;99.90
24158;DHT22;12316;50.904;4.200;2024-01-16T08:16:09;0.70;99.90
24158;DHT22;12316;50.904;4.200;2024-01-16T08:18:35;0.70;99.90
24158;DHT22;12316;50.904;4.200;2024-01-16T08:21:01;0.80;99.90
24158;DHT22;12316;50.904;4.200;2024-01-16T08:23:26;0.80;99.90
24158;DHT22;12316;50.904;4.200;2024-01-16T08:25:52;0.90;99.90
24158;DHT22;12316;50.904;4.200;2024-01-16T08:28:18;0.90;99.90
24158;DHT22;12316;50.904;4.200;2024-01-16T08:30:44;0.90;99.90
24158;DHT22;12316;50.904;4.200;2024-01-16T08:33:11;1.00;99.90
24158;DHT22;12316;50.904;4.200;2024-01-16T08:35:37;1.10;99.90
24158;DHT22;12316;50.904;4.200;2024-01-16T08:38:03;1.10;99.90
24158;DHT22;12316;50.904;4.200;2024-01-16T08:40:28;1.20;99.90
24158;DHT22;12316;50.904;4.200;2024-01-16T08:42:54;1.20;99.90
24158;DHT22;12316;50.904;4.200;2024-01-16T08:45:22;1.30;99.90
24158;DHT22;12316;50.904;4.200;2024-01-16T08:47:48;1.40;99.90
24158;DHT22;12316;50.904;4.200;2024-01-16T08:50:15;1.50;99.90
24158;DHT22;12316;50.904;4.200;2024-01-16T08:52:41;1.60;99.90
24158;DHT22;12316;50.904;4.200;2024-01-16T08:55:08;1.60;99.90
24158;DHT22;12316;50.904;4.200;2024-01-16T08:57:37;1.70;99.90
24158;DHT22;12316;50.904;4.200;2024-01-16T09:00:07;1.60;99.90
24158;DHT22;12316;50.904;4.200;2024-01-16T09:02:35;1.60;99.90
24158;DHT22;12316;50.904;4.200;2024-01-16T09:05:00;1.60;99.90
24158;DHT22;12316;50.904;4.200;2024-01-16T09:07:26;1.70;99.90
24158;DHT22;12316;50.904;4.200;2024-01-16T09:09:52;1.70;99.90
24158;DHT22;12316;50.904;4.200;2024-01-16T09:12:17;1.70;99.90
24158;DHT22;12316;50.904;4.200;2024-01-16T09:14:44;1.80;99.90
24158;DHT22;12316;50.904;4.200;2024-01-16T09:17:10;1.70;99.90
24158;DHT22;12316;50.904;4.200;2024-01-16T09:19:36;1.70;99.90
24158;DHT22;12316;50.904;4.200;2024-01-16T09:22:01;1.60;99.90
24158;DHT22;12316;50.904;4.200;2024-01-16T09:24:28;1.70;99.90
24158;DHT22;12316;50.904;4.200;2024-01-16T09:26:54;1.60;99.90
24158;DHT22;12316;50.904;4.200;2024-01-16T09:29:20;1.40;99.90
24158;DHT22;12316;50.904;4.200;2024-01-16T09:31:47;1.40;99.90
24158;DHT22;12316;50.904;4.200;2024-01-16T09:34:12;1.40;99.90
24158;DHT22;12316;50.904;4.200;2024-01-16T09:36:39;1.20;99.90
24158;DHT22;12316;50.904;4.200;2024-01-16T09:39:05;1.30;99.90
24158;DHT22;12316;50.904;4.200;2024-01-16T09:41:37;1.20;99.90
24158;DHT22;12316;50.904;4.200;2024-01-16T09:44:04;1.20;99.90
24158;DHT22;12316;50.904;4.200;2024-01-16T09:46:31;1.30;99.90
24158;DHT22;12316;50.904;4.200;2024-01-16T09:48:57;1.30;99.90
24158;DHT22;12316;50.904;4.200;2024-01-16T09:51:24;1.20;99.90
24158;DHT22;12316;50.904;4.200;2024-01-16T09:53:50;1.40;99.90
24158;DHT22;12316;50.904;4.200;2024-01-16T09:56:21;1.40;99.90
24158;DHT22;12316;50.904;4.200;2024-01-16T09:58:49;1.40;99.90
24158;DHT22;12316;50.904;4.200;2024-01-16T10:01:15;1.50;99.90
24158;DHT22;12316;50.904;4.200;2024-01-16T10:03:44;1.60;99.90
24158;DHT22;12316;50.904;4.200;2024-01-16T10:06:10;1.70;99.90
24158;DHT22;12316;50.904;4.200;2024-01-16T10:08:37;1.60;99.90
24158;DHT22;12316;50.904;4.200;2024-01-16T10:11:03;1.60;99.90
24158;DHT22;12316;50.904;4.200;2024-01-16T10:13:28;1.80;99.90
24158;DHT22;12316;50.904;4.200;2024-01-16T10:15:55;1.70;99.90
24158;DHT22;12316;50.904;4.200;2024-01-16T10:18:25;1.80;99.90
24158;DHT22;12316;50.904;4.200;2024-01-16T10:20:51;2.00;99.90
24158;DHT22;12316;50.904;4.200;2024-01-16T10:23:25;1.80;99.90
24158;DHT22;12316;50.904;4.200;2024-01-16T10:28:37;1.60;99.90
24158;DHT22;12316;50.904;4.200;2024-01-16T10:31:04;1.50;99.90
24158;DHT22;12316;50.904;4.200;2024-01-16T10:33:30;1.60;99.90
24158;DHT22;12316;50.904;4.200;2024-01-16T10:38:37;1.80;99.90
24158;DHT22;12316;50.904;4.200;2024-01-16T10:41:13;1.80;99.90
24158;DHT22;12316;50.904;4.200;2024-01-16T10:43:39;1.80;99.90
24158;DHT22;12316;50.904;4.200;2024-01-16T10:46:17;1.80;99.90
24158;DHT22;12316;50.904;4.200;2024-01-16T10:48:44;1.80;99.90
24158;DHT22;12316;50.904;4.200;2024-01-16T10:51:14;1.90;99.90
24158;DHT22;12316;50.904;4.200;2024-01-16T10:53:44;1.90;99.90
24158;DHT22;12316;50.904;4.200;2024-01-16T10:56:11;1.80;99.90
24158;DHT22;12316;50.904;4.200;2024-01-16T10:58:40;1.90;99.90
24158;DHT22;12316;50.904;4.200;2024-01-16T11:01:10;1.80;99.90
24158;DHT22;12316;50.904;4.200;2024-01-16T11:03:50;1.80;99.90
24158;DHT22;12316;50.904;4.200;2024-01-16T11:06:17;1.80;99.90
24158;DHT22;12316;50.904;4.200;2024-01-16T11:08:45;1.90;99.90
24158;DHT22;12316;50.904;4.200;2024-01-16T11:11:12;2.10;99.90
24158;DHT22;12316;50.904;4.200;2024-01-16T11:13:38;2.10;99.90
24158;DHT22;12316;50.904;4.200;2024-01-16T11:16:05;2.00;99.90
24158;DHT22;12316;50.904;4.200;2024-01-16T11:18:33;2.00;99.90
24158;DHT22;12316;50.904;4.200;2024-01-16T11:21:01;2.20;99.90
24158;DHT22;12316;50.904;4.200;2024-01-16T11:23:28;2.40;99.90
24158;DHT22;12316;50.904;4.200;2024-01-16T11:25:53;2.30;99.90
24158;DHT22;12316;50.904;4.200;2024-01-16T11:28:19;2.30;99.90
24158;DHT22;12316;50.904;4.200;2024-01-16T11:30:45;2.40;99.90
24158;DHT22;12316;50.904;4.200;2024-01-16T11:35:59;2.50;99.90
24158;DHT22;12316;50.904;4.200;2024-01-16T11:38:26;2.60;99.90
24158;DHT22;12316;50.904;4.200;2024-01-16T11:40:58;2.50;99.90
24158;DHT22;12316;50.904;4.200;2024-01-16T11:46:08;2.70;99.90
24158;DHT22;12316;50.904;4.200;2024-01-16T11:48:34;2.70;99.90
24158;DHT22;12316;50.904;4.200;2024-01-16T11:51:00;2.70;99.90
24158;DHT22;12316;50.904;4.200;2024-01-16T11:53:46;2.80;99.90
24158;DHT22;12316;50.904;4.200;2024-01-16T11:56:47;2.80;99.90
24158;DHT22;12316;50.904;4.200;2024-01-16T11:59:42;2.80;99.90
24158;DHT22;12316;50.904;4.200;2024-01-16T12:02:20;2.80;99.90
24158;DHT22;12316;50.904;4.200;2024-01-16T12:04:53;2.80;99.90
24158;DHT22;12316;50.904;4.200;2024-01-16T12:07:20;2.80;99.90
24158;DHT22;12316;50.904;4.200;2024-01-16T12:09:45;3.20;99.90
24158;DHT22;12316;50.904;4.200;2024-01-16T12:12:11;3.40;99.90
24158;DHT22;12316;50.904;4.200;2024-01-16T12:14:40;3.30;99.90
24158;DHT22;12316;50.904;4.200;2024-01-16T12:17:13;3.20;99.90
24158;DHT22;12316;50.904;4.200;2024-01-16T12:19:39;3.10;99.90
24158;DHT22;12316;50.904;4.200;2024-01-16T12:22:13;3.20;99.90
24158;DHT22;12316;50.904;4.200;2024-01-16T12:24:39;3.30;99.90
24158;DHT22;12316;50.904;4.200;2024-01-16T12:27:05;3.40;99.90
24158;DHT22;12316;50.904;4.200;2024-01-16T12:29:31;3.30;99.90
24158;DHT22;12316;50.904;4.200;2024-01-16T12:34:34;3.50;99.90
24158;DHT22;12316;50.904;4.200;2024-01-16T12:37:06;3.50;99.90
24158;DHT22;12316;50.904;4.200;2024-01-16T12:39:33;3.40;99.90
24158;DHT22;12316;50.904;4.200;2024-01-16T12:42:01;3.50;99.90
24158;DHT22;12316;50.904;4.200;2024-01-16T12:44:28;3.50;99.90
24158;DHT22;12316;50.904;4.200;2024-01-16T12:46:56;3.50;99.90
24158;DHT22;12316;50.904;4.200;2024-01-16T12:49:23;3.40;99.90
24158;DHT22;12316;50.904;4.200;2024-01-16T12:51:49;3.40;99.90
24158;DHT22;12316;50.904;4.200;2024-01-16T12:54:16;3.50;99.90
24158;DHT22;12316;50.904;4.200;2024-01-16T12:56:43;3.50;99.90
24158;DHT22;12316;50.904;4.200;2024-01-16T12:59:13;3.60;99.90
24158;DHT22;12316;50.904;4.200;2024-01-16T13:01:45;3.50;99.90
24158;DHT22;12316;50.904;4.200;2024-01-16T13:04:11;3.40;99.90
24158;DHT22;12316;50.904;4.200;2024-01-16T13:06:37;3.50;99.90
24158;DHT22;12316;50.904;4.200;2024-01-16T13:09:10;3.50;99.90
24158;DHT22;12316;50.904;4.200;2024-01-16T13:11:54;3.50;99.90
24158;DHT22;12316;50.904;4.200;2024-01-16T13:14:20;3.50;99.90
24158;DHT22;12316;50.904;4.200;2024-01-16T13:16:47;3.80;99.90
24158;DHT22;12316;50.904;4.200;2024-01-16T13:19:16;3.70;99.90
24158;DHT22;12316;50.904;4.200;2024-01-16T13:21:42;3.70;99.90
24158;DHT22;12316;50.904;4.200;2024-01-16T13:24:07;3.80;99.90
24158;DHT22;12316;50.904;4.200;2024-01-16T13:26:33;3.80;99.90
24158;DHT22;12316;50.904;4.200;2024-01-16T13:29:00;3.70;99.90
24158;DHT22;12316;50.904;4.200;2024-01-16T13:31:26;3.70;99.90
24158;DHT22;12316;50.904;4.200;2024-01-16T13:33:51;3.60;99.90
24158;DHT22;12316;50.904;4.200;2024-01-16T13:36:17;3.70;99.90
24158;DHT22;12316;50.904;4.200;2024-01-16T13:38:42;3.80;99.90
24158;DHT22;12316;50.904;4.200;2024-01-16T13:41:08;3.80;99.90
24158;DHT22;12316;50.904;4.200;2024-01-16T13:43:34;3.80;99.90
24158;DHT22;12316;50.904;4.200;2024-01-16T13:45:59;4.00;99.90
24158;DHT22;12316;50.904;4.200;2024-01-16T13:48:25;4.10;99.90
24158;DHT22;12316;50.904;4.200;2024-01-16T13:50:51;4.20;99.90
24158;DHT22;12316;50.904;4.200;2024-01-16T13:53:17;4.30;99.90
24158;DHT22;12316;50.904;4.200;2024-01-16T13:55:43;4.40;99.90
24158;DHT22;12316;50.904;4.200;2024-01-16T13:58:09;4.20;99.90
24158;DHT22;12316;50.904;4.200;2024-01-16T14:00:34;4.30;99.90
24158;DHT22;12316;50.904;4.200;2024-01-16T14:03:00;4.30;99.90
24158;DHT22;12316;50.904;4.200;2024-01-16T14:05:28;4.40;99.90
24158;DHT22;12316;50.904;4.200;2024-01-16T14:07:54;4.60;99.90
24158;DHT22;12316;50.904;4.200;2024-01-16T14:10:21;4.40;99.90
24158;DHT22;12316;50.904;4.200;2024-01-16T14:12:49;4.30;99.90
24158;DHT22;12316;50.904;4.200;2024-01-16T14:15:16;4.30;99.90
24158;DHT22;12316;50.904;4.200;2024-01-16T14:17:55;4.30;99.90
24158;DHT22;12316;50.904;4.200;2024-01-16T14:20:23;4.20;99.90
24158;DHT22;12316;50.904;4.200;2024-01-16T14:22:50;4.10;99.90
24158;DHT22;12316;50.904;4.200;2024-01-16T14:25:17;4.10;99.90
24158;DHT22;12316;50.904;4.200;2024-01-16T14:28:04;4.10;99.90
24158;DHT22;12316;50.904;4.200;2024-01-16T14:30:31;4.20;99.90
24158;DHT22;12316;50.904;4.200;2024-01-16T14:32:57;4.10;99.90
24158;DHT22;12316;50.904;4.200;2024-01-16T14:35:23;4.20;99.90
24158;DHT22;12316;50.904;4.200;2024-01-16T14:37:50;4.20;99.90
24158;DHT22;12316;50.904;4.200;2024-01-16T14:40:16;4.10;99.90
24158;DHT22;12316;50.904;4.200;2024-01-16T14:42:46;4.10;99.90
24158;DHT22;12316;50.904;4.200;2024-01-16T14:45:17;4.20;99.90
24158;DHT22;12316;50.904;4.200;2024-01-16T14:47:43;4.00;99.90
24158;DHT22;12316;50.904;4.200;2024-01-16T14:50:11;4.10;99.90
24158;DHT22;12316;50.904;4.200;2024-01-16T14:52:38;4.10;99.90
24158;DHT22;12316;50.904;4.200;2024-01-16T14:55:04;4.20;99.90
24158;DHT22;12316;50.904;4.200;2024-01-16T14:57:33;4.10;99.90
24158;DHT22;12316;50.904;4.200;2024-01-16T15:00:04;4.10;99.90
24158;DHT22;12316;50.904;4.200;2024-01-16T15:02:37;4.20;99.90
24158;DHT22;12316;50.904;4.200;2024-01-16T15:05:03;4.10;99.90
24158;DHT22;12316;50.904;4.200;2024-01-16T15:07:29;4.10;99.90
24158;DHT22;12316;50.904;4.200;2024-01-16T15:09:55;4.10;99.90
24158;DHT22;12316;50.904;4.200;2024-01-16T15:12:20;4.00;99.90
24158;DHT22;12316;50.904;4.200;2024-01-16T15:14:46;4.10;99.90
24158;DHT22;12316;50.904;4.200;2024-01-16T15:17:12;4.00;99.90
24158;DHT22;12316;50.904;4.200;2024-01-16T15:19:37;4.00;99.90
24158;DHT22;12316;50.904;4.200;2024-01-16T15:22:03;3.90;99.90
24158;DHT22;12316;50.904;4.200;2024-01-16T15:24:29;3.70;99.90
24158;DHT22;12316;50.904;4.200;2024-01-16T15:26:55;3.70;99.90
24158;DHT22;12316;50.904;4.200;2024-01-16T15:29:24;3.70;99.90
24158;DHT22;12316;50.904;4.200;2024-01-16T15:31:51;3.60;99.90
24158;DHT22;12316;50.904;4.200;2024-01-16T15:34:22;3.90;99.90
24158;DHT22;12316;50.904;4.200;2024-01-16T15:36:47;3.80;99.90
24158;DHT22;12316;50.904;4.200;2024-01-16T15:39:14;3.50;99.90
24158;DHT22;12316;50.904;4.200;2024-01-16T15:41:43;3.50;99.90
24158;DHT22;12316;50.904;4.200;2024-01-16T15:44:11;3.50;99.90
24158;DHT22;12316;50.904;4.200;2024-01-16T15:47:02;3.30;99.90
24158;DHT22;12316;50.904;4.200;2024-01-16T15:49:29;3.30;99.90
24158;DHT22;12316;50.904;4.200;2024-01-16T15:51:56;3.20;99.90
24158;DHT22;12316;50.904;4.200;2024-01-16T15:54:25;3.20;99.90
24158;DHT22;12316;50.904;4.200;2024-01-16T15:56:52;3.10;99.90